createdAt,value
2023-12-12T00:00:18.885Z,3.62
2023-12-12T00:01:24.779Z,3.61
2023-12-12T00:02:26.649Z,3.60
2023-12-12T00:03:31.113Z,3.57
2023-12-12T00:04:34.607Z,3.60
2023-12-12T00:05:36.549Z,3.58
2023-12-12T00:06:38.640Z,3.58
2023-12-12T00:07:40.819Z,3.62
2023-12-12T00:08:42.780Z,3.65
2023-12-12T00:09:44.629Z,3.62
2023-12-12T00:10:46.433Z,3.59
2023-12-12T00:11:48.162Z,3.57
2023-12-12T00:12:50.259Z,3.61
2023-12-12T00:13:51.985Z,3.60
2023-12-12T00:14:53.677Z,3.53
2023-12-12T00:15:55.802Z,3.51
2023-12-12T00:16:57.504Z,3.53
2023-12-12T00:17:59.300Z,3.58
2023-12-12T00:19:02.622Z,3.57
2023-12-12T00:20:05.903Z,3.58
2023-12-12T00:21:07.665Z,3.56
2023-12-12T00:22:10.583Z,3.57
2023-12-12T00:23:12.450Z,3.57
2023-12-12T00:24:14.177Z,3.57
2023-12-12T00:25:15.998Z,3.59
2023-12-12T00:26:17.745Z,3.60
2023-12-12T00:27:19.411Z,3.64
2023-12-12T00:28:21.127Z,3.64
2023-12-12T00:29:22.954Z,3.63
2023-12-12T00:30:24.701Z,3.61
2023-12-12T00:31:26.678Z,3.57
2023-12-12T00:32:28.455Z,3.58
2023-12-12T00:33:30.211Z,3.60
2023-12-12T00:34:32.105Z,3.59
2023-12-12T00:35:34.295Z,3.63
2023-12-12T00:36:36.185Z,3.59
2023-12-12T00:37:37.949Z,3.57
2023-12-12T00:38:39.704Z,3.56
2023-12-12T00:39:42.119Z,3.54
2023-12-12T00:40:53.685Z,3.53
2023-12-12T00:41:55.760Z,3.52
2023-12-12T00:42:57.497Z,3.50
2023-12-12T00:43:59.174Z,3.50
2023-12-12T00:45:01.077Z,3.48
2023-12-12T00:46:02.930Z,3.53
2023-12-12T00:47:04.666Z,3.55
2023-12-12T00:48:07.215Z,3.51
2023-12-12T00:49:09.187Z,3.46
2023-12-12T00:50:11.238Z,3.44
2023-12-12T00:51:12.926Z,3.43
2023-12-12T00:52:14.828Z,3.48
2023-12-12T00:53:16.822Z,3.47
2023-12-12T00:54:18.779Z,3.53
2023-12-12T00:55:20.493Z,3.54
2023-12-12T00:56:22.254Z,3.53
2023-12-12T00:57:24.139Z,3.56
2023-12-12T00:58:25.998Z,3.52
2023-12-12T00:59:27.777Z,3.55
2023-12-12T01:00:29.617Z,3.54
2023-12-12T01:01:31.443Z,3.55
2023-12-12T01:02:33.584Z,3.54
2023-12-12T01:03:35.498Z,3.55
2023-12-12T01:04:37.740Z,3.54
2023-12-12T01:05:39.646Z,3.51
2023-12-12T01:06:41.439Z,3.51
2023-12-12T01:07:43.166Z,3.50
2023-12-12T01:08:45.042Z,3.50
2023-12-12T01:09:47.084Z,3.49
2023-12-12T01:10:48.836Z,3.45
2023-12-12T01:11:50.622Z,3.48
2023-12-12T01:12:52.326Z,3.48
2023-12-12T01:13:54.253Z,3.44
2023-12-12T01:14:56.489Z,3.45
2023-12-12T01:15:58.595Z,3.43
2023-12-12T01:17:00.523Z,3.45
2023-12-12T01:18:02.392Z,3.49
2023-12-12T01:19:04.493Z,3.48
2023-12-12T01:20:06.980Z,3.49
2023-12-12T01:21:08.849Z,3.53
2023-12-12T01:22:10.801Z,3.55
2023-12-12T01:23:12.776Z,3.52
2023-12-12T01:24:14.471Z,3.55
2023-12-12T01:25:16.417Z,3.54
2023-12-12T01:26:20.191Z,3.59
2023-12-12T01:27:22.004Z,3.56
2023-12-12T01:28:24.022Z,3.61
2023-12-12T01:29:25.694Z,3.64
2023-12-12T01:30:27.389Z,3.63
2023-12-12T01:31:29.533Z,3.61
2023-12-12T01:32:31.544Z,3.64
2023-12-12T01:33:33.496Z,3.68
2023-12-12T01:34:35.700Z,3.69
2023-12-12T01:35:37.585Z,3.68
2023-12-12T01:36:39.269Z,3.67
2023-12-12T01:37:41.623Z,3.60
2023-12-12T01:38:45.456Z,3.58
2023-12-12T01:39:47.104Z,3.60
2023-12-12T01:40:48.960Z,3.65
2023-12-12T01:41:51.364Z,3.67
2023-12-12T01:43:04.375Z,3.65
2023-12-12T01:44:06.290Z,3.67
2023-12-12T01:45:08.905Z,3.69
2023-12-12T01:46:16.006Z,3.68
2023-12-12T01:47:18.004Z,3.68
2023-12-12T01:48:19.992Z,3.68
2023-12-12T01:49:21.913Z,3.65
2023-12-12T01:50:23.872Z,3.68
2023-12-12T01:51:25.587Z,3.69
2023-12-12T01:52:28.293Z,3.69
2023-12-12T01:53:46.441Z,3.68
2023-12-12T01:54:50.452Z,3.70
2023-12-12T01:55:54.409Z,3.72
2023-12-12T01:56:57.011Z,3.64
2023-12-12T01:57:59.132Z,3.64
2023-12-12T01:59:01.896Z,3.62
2023-12-12T02:00:03.905Z,3.58
2023-12-12T02:01:15.721Z,3.62
2023-12-12T02:02:18.651Z,3.64
2023-12-12T02:03:24.022Z,3.64
2023-12-12T02:04:27.837Z,3.60
2023-12-12T02:05:30.097Z,3.64
2023-12-12T02:06:32.415Z,3.63
2023-12-12T02:07:36.784Z,3.62
2023-12-12T02:08:39.560Z,3.61
2023-12-12T02:09:41.565Z,3.60
2023-12-12T02:10:43.448Z,3.62
2023-12-12T02:11:45.378Z,3.60
2023-12-12T02:12:47.521Z,3.62
2023-12-12T02:13:49.363Z,3.59
2023-12-12T02:14:51.148Z,3.60
2023-12-12T02:15:53.217Z,3.58
2023-12-12T02:16:55.008Z,3.60
2023-12-12T02:17:56.769Z,3.58
2023-12-12T02:18:58.815Z,3.58
2023-12-12T02:20:00.954Z,3.59
2023-12-12T02:21:03.128Z,3.62
2023-12-12T02:22:05.187Z,3.55
2023-12-12T02:23:07.235Z,3.51
2023-12-12T02:24:09.178Z,3.51
2023-12-12T02:25:11.166Z,3.51
2023-12-12T02:26:13.115Z,3.54
2023-12-12T02:27:14.964Z,3.55
2023-12-12T02:28:16.866Z,3.55
2023-12-12T02:29:18.845Z,3.58
2023-12-12T02:30:20.946Z,3.56
2023-12-12T02:31:22.673Z,3.56
2023-12-12T02:32:24.824Z,3.58
2023-12-12T02:33:27.142Z,3.58
2023-12-12T02:34:29.172Z,3.58
2023-12-12T02:35:31.378Z,3.61
2023-12-12T02:36:33.116Z,3.63
2023-12-12T02:37:35.472Z,3.61
2023-12-12T02:38:37.359Z,3.60
2023-12-12T02:39:39.207Z,3.62
2023-12-12T02:40:41.033Z,3.66
2023-12-12T02:41:42.699Z,3.65
2023-12-12T02:42:45.757Z,3.63
2023-12-12T02:43:47.473Z,3.61
2023-12-12T02:44:49.163Z,3.64
2023-12-12T02:45:50.960Z,3.65
2023-12-12T02:46:52.702Z,3.67
2023-12-12T02:47:54.676Z,3.65
2023-12-12T02:48:56.664Z,3.66
2023-12-12T02:49:58.373Z,3.62
2023-12-12T02:51:00.058Z,3.66
2023-12-12T02:52:01.984Z,3.67
2023-12-12T02:53:03.790Z,3.66
2023-12-12T02:54:05.500Z,3.64
2023-12-12T02:55:07.812Z,3.68
2023-12-12T02:56:09.906Z,3.69
2023-12-12T02:57:11.804Z,3.70
2023-12-12T02:58:13.524Z,3.68
2023-12-12T02:59:15.424Z,3.68
2023-12-12T03:00:17.425Z,3.70
2023-12-12T03:01:19.560Z,3.69
2023-12-12T03:02:21.343Z,3.68
2023-12-12T03:03:23.174Z,3.69
2023-12-12T03:04:25.094Z,3.70
2023-12-12T03:05:26.901Z,3.69
2023-12-12T03:06:28.955Z,3.71
2023-12-12T03:07:30.927Z,3.70
2023-12-12T03:08:32.861Z,3.70
2023-12-12T03:09:34.574Z,3.73
2023-12-12T03:10:36.561Z,3.75
2023-12-12T03:11:38.436Z,3.74
2023-12-12T03:12:40.113Z,3.78
2023-12-12T03:13:41.796Z,3.79
2023-12-12T03:14:43.457Z,3.82
2023-12-12T03:15:45.532Z,3.83
2023-12-12T03:16:47.272Z,3.86
2023-12-12T03:17:49.177Z,3.79
2023-12-12T03:18:50.976Z,3.80
2023-12-12T03:19:53.253Z,3.82
2023-12-12T03:20:58.584Z,3.78
2023-12-12T03:22:00.508Z,3.78
2023-12-12T03:23:02.545Z,3.77
2023-12-12T03:24:04.613Z,3.79
2023-12-12T03:25:06.887Z,3.78
2023-12-12T03:26:08.618Z,3.71
2023-12-12T03:27:10.283Z,3.77
2023-12-12T03:28:12.700Z,3.79
2023-12-12T03:29:14.555Z,3.82
2023-12-12T03:30:16.537Z,3.81
2023-12-12T03:31:18.452Z,3.79
2023-12-12T03:32:20.334Z,3.80
2023-12-12T03:33:22.285Z,3.85
2023-12-12T03:34:24.211Z,3.87
2023-12-12T03:35:25.949Z,3.84
2023-12-12T03:36:28.157Z,3.84
2023-12-12T03:37:30.098Z,3.83
2023-12-12T03:38:31.947Z,3.84
2023-12-12T03:39:33.822Z,3.83
2023-12-12T03:40:35.607Z,3.86
2023-12-12T03:41:37.492Z,3.84
2023-12-12T03:42:39.355Z,3.75
2023-12-12T03:43:41.026Z,3.79
2023-12-12T03:44:42.695Z,3.83
2023-12-12T03:45:44.776Z,3.80
2023-12-12T03:46:46.639Z,3.80
2023-12-12T03:47:48.546Z,3.84
2023-12-12T03:48:50.350Z,3.85
2023-12-12T03:49:52.147Z,3.83
2023-12-12T03:50:53.843Z,3.84
2023-12-12T03:51:55.832Z,3.85
2023-12-12T03:52:57.523Z,3.86
2023-12-12T03:53:59.224Z,3.87
2023-12-12T03:55:01.188Z,3.90
2023-12-12T03:56:03.885Z,3.90
2023-12-12T03:57:05.600Z,3.91
2023-12-12T03:58:07.478Z,3.93
2023-12-12T03:59:09.352Z,3.97
2023-12-12T04:00:12.305Z,3.98
2023-12-12T04:01:14.440Z,4.00
2023-12-12T04:02:16.293Z,4.04
2023-12-12T04:03:18.125Z,4.04
2023-12-12T04:04:19.942Z,4.10
2023-12-12T04:05:21.733Z,4.07
2023-12-12T04:06:24.289Z,4.06
2023-12-12T04:07:26.042Z,4.06
2023-12-12T04:08:27.894Z,4.08
2023-12-12T04:09:30.593Z,4.05
2023-12-12T04:10:32.381Z,4.02
2023-12-12T04:11:34.264Z,4.00
2023-12-12T04:12:37.515Z,3.99
2023-12-12T04:13:39.370Z,3.98
2023-12-12T04:14:41.754Z,4.03
2023-12-12T04:15:43.607Z,4.03
2023-12-12T04:16:45.264Z,4.01
2023-12-12T04:17:47.028Z,3.99
2023-12-12T04:18:49.931Z,3.98
2023-12-12T04:19:51.776Z,4.01
2023-12-12T04:20:53.597Z,4.07
2023-12-12T04:21:55.500Z,4.11
2023-12-12T04:22:57.515Z,4.15
2023-12-12T04:23:59.322Z,4.16
2023-12-12T04:25:01.279Z,4.15
2023-12-12T04:26:03.221Z,4.15
2023-12-12T04:27:05.046Z,4.07
2023-12-12T04:28:08.349Z,4.11
2023-12-12T04:29:10.159Z,4.15
2023-12-12T04:30:12.437Z,4.18
2023-12-12T04:31:17.447Z,4.18
2023-12-12T04:32:19.152Z,4.21
2023-12-12T04:33:22.037Z,4.26
2023-12-12T04:34:24.049Z,4.24
2023-12-12T04:35:28.150Z,4.18
2023-12-12T04:36:30.267Z,4.20
2023-12-12T04:37:32.353Z,4.26
2023-12-12T04:38:36.705Z,4.24
2023-12-12T04:39:38.700Z,4.16
2023-12-12T04:40:40.584Z,4.15
2023-12-12T04:41:42.395Z,4.15
2023-12-12T04:42:44.410Z,4.16
2023-12-12T04:43:46.095Z,4.12
2023-12-12T04:44:47.821Z,4.06
2023-12-12T04:45:49.950Z,4.03
2023-12-12T04:46:51.935Z,3.95
2023-12-12T04:47:54.309Z,3.92
2023-12-12T04:48:56.276Z,3.89
2023-12-12T04:49:58.662Z,3.89
2023-12-12T04:51:00.385Z,3.87
2023-12-12T04:52:02.100Z,3.92
2023-12-12T04:53:03.819Z,3.92
2023-12-12T04:54:05.736Z,3.89
2023-12-12T04:55:07.762Z,3.89
2023-12-12T04:56:10.178Z,3.86
2023-12-12T04:57:11.846Z,3.87
2023-12-12T04:58:13.795Z,3.89
2023-12-12T04:59:15.518Z,3.88
2023-12-12T05:00:17.413Z,3.83
2023-12-12T05:01:19.501Z,3.86
2023-12-12T05:02:21.405Z,3.89
2023-12-12T05:03:23.284Z,3.86
2023-12-12T05:04:25.129Z,3.86
2023-12-12T05:05:26.931Z,3.86
2023-12-12T05:06:28.620Z,3.88
2023-12-12T05:07:30.982Z,3.88
2023-12-12T05:08:32.961Z,3.88
2023-12-12T05:09:35.019Z,3.93
2023-12-12T05:10:37.177Z,3.94
2023-12-12T05:11:39.380Z,4.01
2023-12-12T05:12:41.156Z,4.08
2023-12-12T05:13:43.067Z,4.14
2023-12-12T05:14:44.766Z,4.18
2023-12-12T05:15:46.502Z,4.14
2023-12-12T05:16:57.767Z,4.12
2023-12-12T05:18:06.559Z,4.10
2023-12-12T05:19:08.423Z,4.03
2023-12-12T05:20:11.155Z,3.99
2023-12-12T05:21:13.248Z,4.00
2023-12-12T05:22:14.976Z,4.05
2023-12-12T05:23:17.502Z,4.08
2023-12-12T05:24:19.297Z,4.08
2023-12-12T05:25:22.299Z,4.05
2023-12-12T05:26:25.411Z,4.06
2023-12-12T05:27:27.138Z,4.11
2023-12-12T05:28:29.332Z,4.14
2023-12-12T05:29:31.144Z,4.18
2023-12-12T05:30:32.935Z,4.15
2023-12-12T05:31:34.825Z,4.08
2023-12-12T05:32:36.709Z,4.11
2023-12-12T05:33:39.091Z,4.17
2023-12-12T05:34:41.049Z,4.12
2023-12-12T05:35:42.861Z,4.11
2023-12-12T05:36:44.539Z,4.11
2023-12-12T05:37:46.351Z,4.10
2023-12-12T05:38:48.102Z,4.12
2023-12-12T05:39:49.763Z,4.12
2023-12-12T05:40:51.852Z,4.10
2023-12-12T05:41:53.518Z,4.11
2023-12-12T05:42:55.381Z,4.11
2023-12-12T05:43:57.336Z,4.04
2023-12-12T05:44:58.958Z,3.98
2023-12-12T05:46:01.042Z,3.98
2023-12-12T05:47:02.874Z,3.99
2023-12-12T05:48:05.365Z,3.99
2023-12-12T05:49:07.357Z,3.94
2023-12-12T05:50:09.677Z,3.96
2023-12-12T05:51:11.533Z,3.95
2023-12-12T05:52:13.245Z,3.94
2023-12-12T05:53:15.507Z,3.93
2023-12-12T05:54:17.225Z,3.91
2023-12-12T05:55:19.097Z,3.92
2023-12-12T05:56:20.809Z,3.90
2023-12-12T05:57:22.545Z,3.87
2023-12-12T05:58:24.711Z,3.84
2023-12-12T05:59:26.784Z,3.86
2023-12-12T06:00:28.638Z,3.91
2023-12-12T06:01:30.378Z,3.96
2023-12-12T06:02:32.298Z,3.94
2023-12-12T06:03:37.126Z,3.94
2023-12-12T06:04:40.282Z,4.02
2023-12-12T06:05:42.182Z,4.01
2023-12-12T06:06:45.439Z,4.02
2023-12-12T06:07:47.700Z,4.03
2023-12-12T06:08:49.580Z,4.00
2023-12-12T06:09:51.511Z,3.98
2023-12-12T06:10:53.208Z,3.97
2023-12-12T06:11:55.315Z,3.93
2023-12-12T06:12:57.124Z,3.96
2023-12-12T06:13:58.824Z,3.95
2023-12-12T06:15:00.621Z,3.97
2023-12-12T06:16:02.676Z,4.00
2023-12-12T06:17:04.762Z,4.06
2023-12-12T06:18:06.974Z,4.15
2023-12-12T06:19:08.799Z,4.10
2023-12-12T06:20:10.883Z,4.11
2023-12-12T06:21:12.808Z,4.14
2023-12-12T06:22:14.890Z,4.12
2023-12-12T06:23:16.591Z,4.10
2023-12-12T06:24:18.375Z,4.01
2023-12-12T06:25:20.138Z,4.05
2023-12-12T06:26:21.891Z,4.09
2023-12-12T06:27:25.206Z,4.05
2023-12-12T06:28:27.124Z,4.02
2023-12-12T06:29:28.858Z,4.02
2023-12-12T06:30:30.775Z,4.03
2023-12-12T06:31:32.655Z,4.06
2023-12-12T06:32:34.740Z,4.03
2023-12-12T06:33:38.901Z,3.97
2023-12-12T06:34:40.743Z,3.98
2023-12-12T06:35:44.186Z,3.96
2023-12-12T06:36:45.886Z,3.98
2023-12-12T06:37:47.785Z,3.96
2023-12-12T06:38:49.466Z,3.93
2023-12-12T06:39:51.325Z,3.92
2023-12-12T06:40:53.278Z,3.94
2023-12-12T06:41:55.203Z,3.91
2023-12-12T06:42:57.149Z,3.93
2023-12-12T06:43:59.037Z,3.93
2023-12-12T06:45:00.703Z,3.92
2023-12-12T06:46:02.452Z,3.92
2023-12-12T06:47:04.392Z,3.92
2023-12-12T06:48:06.492Z,3.87
2023-12-12T06:49:08.667Z,3.85
2023-12-12T06:50:10.833Z,3.87
2023-12-12T06:51:12.638Z,3.88
2023-12-12T06:52:14.716Z,3.94
2023-12-12T06:53:16.633Z,3.91
2023-12-12T06:54:18.673Z,3.92
2023-12-12T06:55:20.421Z,3.91
2023-12-12T06:56:22.089Z,3.89
2023-12-12T06:57:24.119Z,3.86
2023-12-12T06:58:26.002Z,3.87
2023-12-12T06:59:27.789Z,3.92
2023-12-12T07:00:29.421Z,3.96
2023-12-12T07:01:31.389Z,3.99
2023-12-12T07:02:33.240Z,4.05
2023-12-12T07:03:36.078Z,4.04
2023-12-12T07:04:38.046Z,4.05
2023-12-12T07:05:40.053Z,4.08
2023-12-12T07:06:41.830Z,4.10
2023-12-12T07:07:43.626Z,4.10
2023-12-12T07:08:47.199Z,4.15
2023-12-12T07:09:59.077Z,4.13
2023-12-12T07:11:02.395Z,4.10
2023-12-12T07:12:04.495Z,4.10
2023-12-12T07:13:06.374Z,4.10
2023-12-12T07:14:08.103Z,4.08
2023-12-12T07:15:10.362Z,4.05
2023-12-12T07:16:12.097Z,4.04
2023-12-12T07:17:13.795Z,4.06
2023-12-12T07:18:15.871Z,4.06
2023-12-12T07:19:17.802Z,4.09
2023-12-12T07:20:19.570Z,4.06
2023-12-12T07:21:21.352Z,4.00
2023-12-12T07:22:23.152Z,4.03
2023-12-12T07:23:25.104Z,3.98
2023-12-12T07:24:27.018Z,3.96
2023-12-12T07:25:28.714Z,3.97
2023-12-12T07:26:30.429Z,3.98
2023-12-12T07:27:32.330Z,3.98
2023-12-12T07:28:34.190Z,3.99
2023-12-12T07:29:35.966Z,4.01
2023-12-12T07:30:37.866Z,4.03
2023-12-12T07:31:39.797Z,4.07
2023-12-12T07:32:41.477Z,4.06
2023-12-12T07:33:43.226Z,4.06
2023-12-12T07:34:45.071Z,4.07
2023-12-12T07:35:47.018Z,4.10
2023-12-12T07:36:48.858Z,4.11
2023-12-12T07:37:50.906Z,4.15
2023-12-12T07:38:52.766Z,4.17
2023-12-12T07:39:54.722Z,4.19
2023-12-12T07:40:56.926Z,4.21
2023-12-12T07:41:58.746Z,4.19
2023-12-12T07:43:00.659Z,4.21
2023-12-12T07:44:02.421Z,4.21
2023-12-12T07:45:04.634Z,4.20
2023-12-12T07:46:06.581Z,4.21
2023-12-12T07:47:08.617Z,4.20
2023-12-12T07:48:10.609Z,4.21
2023-12-12T07:49:12.911Z,4.16
2023-12-12T07:50:14.915Z,4.08
2023-12-12T07:51:17.231Z,4.04
2023-12-12T07:52:19.093Z,4.02
2023-12-12T07:53:22.938Z,4.07
2023-12-12T07:54:24.692Z,4.03
2023-12-12T07:55:26.585Z,4.01
2023-12-12T07:56:28.316Z,4.00
2023-12-12T07:57:30.444Z,4.02
2023-12-12T07:58:32.535Z,4.03
2023-12-12T07:59:34.262Z,4.00
2023-12-12T08:00:36.125Z,4.01
2023-12-12T08:01:38.305Z,3.94
2023-12-12T08:02:40.369Z,3.95
2023-12-12T08:03:42.254Z,3.97
2023-12-12T08:04:43.962Z,3.95
2023-12-12T08:05:45.984Z,3.91
2023-12-12T08:06:47.914Z,3.90
2023-12-12T08:07:49.632Z,3.91
2023-12-12T08:08:51.505Z,3.93
2023-12-12T08:09:53.275Z,3.95
2023-12-12T08:10:54.955Z,3.98
2023-12-12T08:11:57.476Z,4.00
2023-12-12T08:12:59.349Z,4.06
2023-12-12T08:14:01.744Z,4.05
2023-12-12T08:15:03.801Z,4.07
2023-12-12T08:16:06.296Z,4.08
2023-12-12T08:17:08.170Z,4.08
2023-12-12T08:18:09.985Z,4.12
2023-12-12T08:19:11.851Z,4.14
2023-12-12T08:20:13.850Z,4.18
2023-12-12T08:21:15.656Z,4.20
2023-12-12T08:22:17.406Z,4.24
2023-12-12T08:23:19.246Z,4.23
2023-12-12T08:24:21.061Z,4.23
2023-12-12T08:25:22.983Z,4.18
2023-12-12T08:26:24.745Z,4.20
2023-12-12T08:27:26.369Z,4.16
2023-12-12T08:28:28.063Z,4.17
2023-12-12T08:29:32.216Z,4.20
2023-12-12T08:30:34.263Z,4.21
2023-12-12T08:31:36.196Z,4.20
2023-12-12T08:32:38.256Z,4.20
2023-12-12T08:33:40.593Z,4.24
2023-12-12T08:34:42.346Z,4.27
2023-12-12T08:35:44.211Z,4.33
2023-12-12T08:36:45.915Z,4.33
2023-12-12T08:37:47.698Z,4.33
2023-12-12T08:38:49.570Z,4.35
2023-12-12T08:39:51.299Z,4.34
2023-12-12T08:40:53.136Z,4.37
2023-12-12T08:41:54.911Z,4.40
2023-12-12T08:42:56.691Z,4.44
2023-12-12T08:43:59.339Z,4.49
2023-12-12T08:45:01.223Z,4.47
2023-12-12T08:46:03.207Z,4.55
2023-12-12T08:47:05.074Z,4.56
2023-12-12T08:48:07.025Z,4.57
2023-12-12T08:49:09.346Z,4.58
2023-12-12T08:50:11.249Z,4.59
2023-12-12T08:51:13.174Z,4.60
2023-12-12T08:52:15.307Z,4.60
2023-12-12T08:53:17.641Z,4.63
2023-12-12T08:54:19.502Z,4.65
2023-12-12T08:55:21.255Z,4.69
2023-12-12T08:56:23.156Z,4.70
2023-12-12T08:57:25.376Z,4.72
2023-12-12T08:58:27.123Z,4.72
2023-12-12T08:59:29.077Z,4.74
2023-12-12T09:00:30.985Z,4.76
2023-12-12T09:01:32.952Z,4.77
2023-12-12T09:02:34.890Z,4.74
2023-12-12T09:03:36.937Z,4.75
2023-12-12T09:04:38.886Z,4.73
2023-12-12T09:05:40.621Z,4.75
2023-12-12T09:06:42.304Z,4.74
2023-12-12T09:07:44.509Z,4.77
2023-12-12T09:08:46.207Z,4.78
2023-12-12T09:09:47.880Z,4.81
2023-12-12T09:10:49.692Z,4.83
2023-12-12T09:11:51.452Z,4.84
2023-12-12T09:12:53.424Z,4.86
2023-12-12T09:13:55.137Z,4.86
2023-12-12T09:14:56.891Z,4.86
2023-12-12T09:15:58.608Z,4.91
2023-12-12T09:17:00.316Z,4.95
2023-12-12T09:18:15.637Z,4.98
2023-12-12T09:19:21.332Z,4.97
2023-12-12T09:20:23.374Z,5.02
2023-12-12T09:21:25.490Z,5.04
2023-12-12T09:22:27.436Z,5.03
2023-12-12T09:23:29.541Z,5.05
2023-12-12T09:24:31.280Z,5.04
2023-12-12T09:25:33.456Z,5.11
2023-12-12T09:26:35.297Z,5.13
2023-12-12T09:27:36.949Z,5.13
2023-12-12T09:28:41.208Z,5.10
2023-12-12T09:29:43.401Z,5.06
2023-12-12T09:30:45.476Z,5.11
2023-12-12T09:31:47.491Z,5.12
2023-12-12T09:32:49.727Z,5.13
2023-12-12T09:33:51.486Z,5.14
2023-12-12T09:34:53.308Z,5.12
2023-12-12T09:35:55.162Z,5.11
2023-12-12T09:36:56.889Z,5.14
2023-12-12T09:37:58.590Z,5.14
2023-12-12T09:39:00.310Z,5.22
2023-12-12T09:40:05.087Z,5.24
2023-12-12T09:41:09.249Z,5.25
2023-12-12T09:42:15.585Z,5.28
2023-12-12T09:43:20.435Z,5.32
2023-12-12T09:44:22.726Z,5.32
2023-12-12T09:45:24.622Z,5.40
2023-12-12T09:46:26.786Z,5.49
2023-12-12T09:47:30.402Z,5.57
2023-12-12T09:48:33.919Z,5.78
2023-12-12T09:49:36.671Z,6.01
2023-12-12T09:50:39.129Z,6.23
2023-12-12T09:51:42.735Z,6.41
2023-12-12T09:52:47.342Z,6.64
2023-12-12T09:53:49.935Z,6.86
2023-12-12T09:54:56.419Z,7.02
2023-12-12T09:56:02.083Z,7.12
2023-12-12T09:57:05.595Z,7.19
2023-12-12T09:58:07.919Z,7.24
2023-12-12T09:59:09.807Z,7.24
2023-12-12T10:00:12.074Z,7.26
2023-12-12T10:01:14.055Z,7.33
2023-12-12T10:02:22.544Z,7.39
2023-12-12T10:03:26.135Z,7.38
2023-12-12T10:04:28.223Z,7.29
2023-12-12T10:05:33.797Z,7.29
2023-12-12T10:06:51.311Z,7.35
2023-12-12T10:08:00.603Z,7.42
2023-12-12T10:09:07.163Z,7.41
2023-12-12T10:10:13.638Z,7.43
2023-12-12T10:11:15.528Z,7.44
2023-12-12T10:12:17.916Z,7.51
2023-12-12T10:13:20.548Z,7.50
2023-12-12T10:14:39.227Z,7.32
2023-12-12T10:15:40.917Z,7.24
2023-12-12T10:16:43.028Z,7.25
2023-12-12T10:17:44.987Z,7.15
2023-12-12T10:18:48.318Z,7.06
2023-12-12T10:20:00.351Z,7.03
2023-12-12T10:21:14.407Z,7.01
2023-12-12T10:22:16.155Z,6.89
2023-12-12T10:23:18.297Z,6.85
2023-12-12T10:24:26.903Z,6.81
2023-12-12T10:25:35.449Z,6.72
2023-12-12T10:26:37.697Z,6.70
2023-12-12T10:27:43.132Z,6.68
2023-12-12T10:28:44.937Z,6.61
2023-12-12T10:29:46.760Z,6.59
2023-12-12T10:30:53.142Z,6.60
2023-12-12T10:31:55.095Z,6.58
2023-12-12T10:32:57.067Z,6.62
2023-12-12T10:33:59.546Z,6.60
2023-12-12T10:35:03.271Z,6.61
2023-12-12T10:36:09.898Z,6.61
2023-12-12T10:37:11.833Z,6.59
2023-12-12T10:38:14.573Z,6.61
2023-12-12T10:39:17.315Z,6.60
2023-12-12T10:40:21.532Z,6.59
2023-12-12T10:41:26.606Z,6.60
2023-12-12T10:42:33.361Z,6.65
2023-12-12T10:43:35.531Z,6.64
2023-12-12T10:44:39.906Z,6.64
2023-12-12T10:45:41.616Z,6.67
2023-12-12T10:46:44.918Z,6.64
2023-12-12T10:47:49.127Z,6.69
2023-12-12T10:48:51.577Z,6.72
2023-12-12T10:49:57.166Z,6.77
2023-12-12T10:51:02.896Z,6.79
2023-12-12T10:52:06.588Z,6.81
2023-12-12T10:53:10.469Z,6.80
2023-12-12T10:54:12.535Z,6.79
2023-12-12T10:55:15.886Z,6.76
2023-12-12T10:56:17.751Z,6.71
2023-12-12T10:57:20.317Z,6.70
2023-12-12T10:58:23.035Z,6.71
2023-12-12T10:59:57.357Z,6.74
2023-12-12T11:00:49.544Z,6.68
2023-12-12T11:01:51.965Z,6.65
2023-12-12T11:02:54.395Z,6.61
2023-12-12T11:03:58.583Z,6.56
2023-12-12T11:05:01.647Z,6.51
2023-12-12T11:06:07.194Z,6.48
2023-12-12T11:07:09.343Z,6.44
2023-12-12T11:08:12.024Z,6.45
2023-12-12T11:09:13.790Z,6.44
2023-12-12T11:10:19.181Z,6.45
2023-12-12T11:11:24.650Z,6.46
2023-12-12T11:12:28.858Z,6.44
2023-12-12T11:13:34.601Z,6.44
2023-12-12T11:14:37.707Z,6.45
2023-12-12T11:15:40.609Z,6.42
2023-12-12T11:16:45.227Z,6.40
2023-12-12T11:17:48.643Z,6.41
2023-12-12T11:18:52.815Z,6.39
2023-12-12T11:19:55.166Z,6.42
2023-12-12T11:20:57.033Z,6.41
2023-12-12T11:21:58.761Z,6.37
2023-12-12T11:23:00.643Z,6.37
2023-12-12T11:24:02.526Z,6.34
2023-12-12T11:25:05.610Z,6.31
2023-12-12T11:26:08.204Z,6.32
2023-12-12T11:27:10.974Z,6.31
2023-12-12T11:28:13.133Z,6.30
2023-12-12T11:29:18.762Z,6.30
2023-12-12T11:30:30.243Z,6.29
2023-12-12T11:31:35.765Z,6.32
2023-12-12T11:32:37.567Z,6.33
2023-12-12T11:34:04.982Z,6.52
2023-12-12T11:35:07.694Z,6.59
2023-12-12T11:36:26.106Z,6.68
2023-12-12T11:37:48.213Z,6.93
2023-12-12T11:38:49.920Z,7.03
2023-12-12T11:39:51.762Z,7.14
2023-12-12T11:41:10.331Z,7.23
2023-12-12T11:42:18.940Z,7.36
2023-12-12T11:43:23.704Z,7.50
2023-12-12T11:44:25.751Z,7.59
2023-12-12T11:45:32.008Z,7.77
2023-12-12T11:46:33.746Z,7.91
2023-12-12T11:47:35.746Z,7.97
2023-12-12T11:48:37.675Z,7.99
2023-12-12T11:49:39.548Z,7.96
2023-12-12T11:50:41.258Z,8.16
2023-12-12T11:51:44.040Z,8.35
2023-12-12T11:52:45.684Z,8.56
2023-12-12T11:53:48.396Z,8.68
2023-12-12T11:54:56.130Z,8.84
2023-12-12T11:56:03.523Z,8.79
2023-12-12T11:57:08.756Z,8.61
2023-12-12T11:58:11.241Z,8.29
2023-12-12T11:59:13.234Z,8.14
2023-12-12T12:00:18.807Z,8.04
2023-12-12T12:01:21.703Z,7.87
2023-12-12T12:02:23.510Z,7.79
2023-12-12T12:03:25.313Z,7.68
2023-12-12T12:04:26.982Z,7.55
2023-12-12T12:05:28.996Z,7.53
2023-12-12T12:06:30.712Z,7.42
2023-12-12T12:07:32.827Z,7.33
2023-12-12T12:08:34.542Z,7.28
2023-12-12T12:09:36.262Z,7.25
2023-12-12T12:10:38.199Z,7.21
2023-12-12T12:11:41.036Z,7.12
2023-12-12T12:13:01.360Z,7.10
2023-12-12T12:14:03.329Z,7.03
2023-12-12T12:15:07.649Z,6.95
2023-12-12T12:16:10.615Z,6.92
2023-12-12T12:17:12.413Z,6.92
2023-12-12T12:18:29.799Z,6.88
2023-12-12T12:19:35.260Z,6.92
2023-12-12T12:20:46.707Z,6.91
2023-12-12T12:21:48.608Z,6.86
2023-12-12T12:22:50.687Z,6.87
2023-12-12T12:23:54.345Z,6.85
2023-12-12T12:24:58.545Z,6.87
2023-12-12T12:26:00.655Z,6.87
2023-12-12T12:27:05.845Z,6.87
2023-12-12T12:28:10.806Z,6.89
2023-12-12T12:29:12.912Z,6.92
2023-12-12T12:30:14.718Z,6.97
2023-12-12T12:31:28.320Z,7.05
2023-12-12T12:32:30.826Z,7.11
2023-12-12T12:33:36.823Z,7.14
2023-12-12T12:34:38.610Z,7.20
2023-12-12T12:35:58.451Z,7.21
2023-12-12T12:37:02.009Z,7.22
2023-12-12T12:38:25.536Z,7.14
2023-12-12T12:39:27.263Z,7.16
2023-12-12T12:40:37.663Z,7.16
2023-12-12T12:41:39.782Z,7.20
2023-12-12T12:42:41.656Z,7.25
2023-12-12T12:43:52.055Z,7.26
2023-12-12T12:44:56.390Z,7.23
2023-12-12T12:45:58.233Z,7.24
2023-12-12T12:47:00.220Z,7.28
2023-12-12T12:48:02.121Z,7.27
2023-12-12T12:49:04.083Z,7.29
2023-12-12T12:50:06.279Z,7.32
2023-12-12T12:51:08.145Z,7.28
2023-12-12T12:52:09.844Z,7.21
2023-12-12T12:53:12.109Z,7.12
2023-12-12T12:54:14.551Z,7.06
2023-12-12T12:55:16.332Z,6.99
2023-12-12T12:56:18.124Z,6.96
2023-12-12T12:57:19.828Z,6.93
2023-12-12T12:58:21.559Z,6.86
2023-12-12T12:59:25.990Z,6.86
2023-12-12T13:00:27.802Z,6.80
2023-12-12T13:01:30.010Z,6.73
2023-12-12T13:02:32.366Z,6.67
2023-12-12T13:03:34.395Z,6.63
2023-12-12T13:04:39.456Z,6.59
2023-12-12T13:05:41.657Z,6.59
2023-12-12T13:06:43.648Z,6.55
2023-12-12T13:07:45.383Z,6.56
2023-12-12T13:08:47.159Z,6.55
2023-12-12T13:09:48.843Z,6.55
2023-12-12T13:10:51.715Z,6.51
2023-12-12T13:11:53.965Z,6.49
2023-12-12T13:12:55.599Z,6.47
2023-12-12T13:13:57.272Z,6.50
2023-12-12T13:14:58.974Z,6.51
2023-12-12T13:16:00.733Z,6.54
2023-12-12T13:17:02.435Z,6.52
2023-12-12T13:18:04.236Z,6.50
2023-12-12T13:19:06.211Z,6.50
2023-12-12T13:20:08.507Z,6.47
2023-12-12T13:21:10.224Z,6.43
2023-12-12T13:22:12.146Z,6.46
2023-12-12T13:23:14.301Z,6.42
2023-12-12T13:24:15.966Z,6.44
2023-12-12T13:25:17.740Z,6.37
2023-12-12T13:26:19.588Z,6.33
2023-12-12T13:27:21.249Z,6.29
2023-12-12T13:28:23.031Z,6.26
2023-12-12T13:29:25.137Z,6.23
2023-12-12T13:30:31.450Z,6.16
2023-12-12T13:31:33.581Z,6.16
2023-12-12T13:32:36.923Z,6.14
2023-12-12T13:33:39.202Z,6.14
2023-12-12T13:34:41.112Z,6.14
2023-12-12T13:35:43.130Z,6.09
2023-12-12T13:36:45.017Z,6.05
2023-12-12T13:37:46.815Z,6.10
2023-12-12T13:38:48.702Z,6.13
2023-12-12T13:39:50.401Z,6.13
2023-12-12T13:40:52.375Z,6.16
2023-12-12T13:41:54.115Z,6.09
2023-12-12T13:42:55.861Z,6.10
2023-12-12T13:43:57.545Z,6.11
2023-12-12T13:44:59.395Z,6.13
2023-12-12T13:46:01.264Z,6.15
2023-12-12T13:47:03.314Z,6.12
2023-12-12T13:48:05.348Z,6.14
2023-12-12T13:49:07.257Z,6.14
2023-12-12T13:50:09.608Z,6.12
2023-12-12T13:51:13.121Z,6.16
2023-12-12T13:52:15.749Z,6.19
2023-12-12T13:53:17.653Z,6.21
2023-12-12T13:54:19.370Z,6.20
2023-12-12T13:55:21.410Z,6.24